createdAt,value
2023-03-16T00:00:55.427Z,2.60
2023-03-16T00:03:22.361Z,2.70
2023-03-16T00:05:52.674Z,2.70
2023-03-16T00:08:19.761Z,2.70
2023-03-16T00:10:49.293Z,2.70
2023-03-16T00:13:19.986Z,2.70
2023-03-16T00:15:50.340Z,2.70
2023-03-16T00:18:16.955Z,2.70
2023-03-16T00:20:43.489Z,2.60
2023-03-16T00:23:10.049Z,2.60
2023-03-16T00:25:36.727Z,2.60
2023-03-16T00:28:03.679Z,2.60
2023-03-16T00:30:32.624Z,2.60
2023-03-16T00:32:59.427Z,2.60
2023-03-16T00:35:26.001Z,2.60
2023-03-16T00:37:52.770Z,2.60
2023-03-16T00:40:19.488Z,2.60
2023-03-16T00:42:46.025Z,2.60
2023-03-16T00:45:12.526Z,2.60
2023-03-16T00:47:39.079Z,2.60
2023-03-16T00:50:05.822Z,2.60
2023-03-16T00:52:32.490Z,2.60
2023-03-16T00:54:59.047Z,2.60
2023-03-16T00:57:26.108Z,2.60
2023-03-16T00:59:52.750Z,2.60
2023-03-16T01:02:23.213Z,2.60
2023-03-16T01:04:50.347Z,2.70
2023-03-16T01:07:16.937Z,2.70
2023-03-16T01:09:43.881Z,2.60
2023-03-16T01:12:12.211Z,2.70
2023-03-16T01:14:39.307Z,2.70
2023-03-16T01:17:08.542Z,2.70
2023-03-16T01:19:36.148Z,2.70
2023-03-16T01:22:04.094Z,2.70
2023-03-16T01:24:30.748Z,2.70
2023-03-16T01:26:57.772Z,2.70
2023-03-16T01:29:25.074Z,2.60
2023-03-16T01:31:51.835Z,2.60
2023-03-16T01:34:18.747Z,2.60
2023-03-16T01:36:47.728Z,2.60
2023-03-16T01:39:14.863Z,2.60
2023-03-16T01:41:42.185Z,2.70
2023-03-16T01:44:20.064Z,2.70
2023-03-16T01:46:46.645Z,2.60
2023-03-16T01:49:13.175Z,2.70
2023-03-16T01:51:44.500Z,2.60
2023-03-16T01:54:19.277Z,2.50
2023-03-16T01:57:06.089Z,2.60
2023-03-16T01:59:37.569Z,2.50
2023-03-16T02:02:04.164Z,2.50
2023-03-16T02:04:49.730Z,2.50
2023-03-16T02:07:17.756Z,2.60
2023-03-16T02:09:49.082Z,2.60
2023-03-16T02:12:19.145Z,2.60
2023-03-16T02:14:46.612Z,2.60
2023-03-16T02:17:18.115Z,2.60
2023-03-16T02:19:53.274Z,2.60
2023-03-16T02:22:20.310Z,2.70
2023-03-16T02:24:46.850Z,2.70
2023-03-16T02:27:17.663Z,2.70
2023-03-16T02:29:59.469Z,2.80
2023-03-16T02:32:27.543Z,2.80
2023-03-16T02:34:54.869Z,2.80
2023-03-16T02:37:21.904Z,2.80
2023-03-16T02:39:48.444Z,2.80
2023-03-16T02:42:16.745Z,2.80
2023-03-16T02:44:45.215Z,2.70
2023-03-16T02:47:24.645Z,2.70
2023-03-16T02:49:51.188Z,2.70
2023-03-16T02:52:17.761Z,2.70
2023-03-16T02:54:44.303Z,2.60
2023-03-16T02:57:10.943Z,2.70
2023-03-16T02:59:37.475Z,2.70
2023-03-16T03:02:04.170Z,2.60
2023-03-16T03:04:33.412Z,2.60
2023-03-16T03:07:04.700Z,2.60
2023-03-16T03:09:32.890Z,2.60
2023-03-16T03:11:59.718Z,2.60
2023-03-16T03:14:28.208Z,2.60
2023-03-16T03:16:55.121Z,2.60
2023-03-16T03:19:23.110Z,2.60
2023-03-16T03:21:49.864Z,2.50
2023-03-16T03:24:16.544Z,2.60
2023-03-16T03:26:44.902Z,2.60
2023-03-16T03:29:12.580Z,2.70
2023-03-16T03:31:39.452Z,2.60
2023-03-16T03:34:06.876Z,2.60
2023-03-16T03:36:34.485Z,2.60
2023-03-16T03:39:06.002Z,2.60
2023-03-16T03:41:32.935Z,2.60
2023-03-16T03:43:59.923Z,2.60
2023-03-16T03:46:27.167Z,2.60
2023-03-16T03:48:53.852Z,2.70
2023-03-16T03:51:21.698Z,2.70
2023-03-16T03:53:48.340Z,2.60
2023-03-16T03:56:15.025Z,2.60
2023-03-16T03:58:41.625Z,2.60
2023-03-16T04:01:08.239Z,2.60
2023-03-16T04:03:34.859Z,2.70
2023-03-16T04:06:01.556Z,2.70
2023-03-16T04:08:28.288Z,2.70
2023-03-16T04:10:54.897Z,2.80
2023-03-16T04:13:21.414Z,2.80
2023-03-16T04:15:47.961Z,2.80
2023-03-16T04:18:14.495Z,2.80
2023-03-16T04:20:41.046Z,2.90
2023-03-16T04:23:07.832Z,2.90
2023-03-16T04:25:34.817Z,2.90
2023-03-16T04:28:02.060Z,2.90
2023-03-16T04:30:30.903Z,2.90
2023-03-16T04:32:58.263Z,2.90
2023-03-16T04:35:24.872Z,2.90
2023-03-16T04:37:51.393Z,2.90
2023-03-16T04:40:19.269Z,2.90
2023-03-16T04:42:46.600Z,2.90
2023-03-16T04:45:14.068Z,3.00
2023-03-16T04:47:40.633Z,3.00
2023-03-16T04:50:08.010Z,3.00
2023-03-16T04:52:34.991Z,2.90
2023-03-16T04:55:01.524Z,2.90
2023-03-16T04:57:28.114Z,3.00
2023-03-16T04:59:54.665Z,3.00
2023-03-16T05:02:21.307Z,3.00
2023-03-16T05:04:48.293Z,3.00
2023-03-16T05:07:14.826Z,3.00
2023-03-16T05:09:41.799Z,3.00
2023-03-16T05:12:08.569Z,3.00
2023-03-16T05:14:36.081Z,3.00
2023-03-16T05:17:05.875Z,3.00
2023-03-16T05:19:32.481Z,3.00
2023-03-16T05:21:59.008Z,3.00
2023-03-16T05:24:25.570Z,3.00
2023-03-16T05:26:52.224Z,3.00
2023-03-16T05:29:18.962Z,3.00
2023-03-16T05:31:47.547Z,3.00
2023-03-16T05:34:14.796Z,3.00
2023-03-16T05:36:41.393Z,3.00
2023-03-16T05:39:08.649Z,3.00
2023-03-16T05:41:35.267Z,3.00
2023-03-16T05:44:01.993Z,3.00
2023-03-16T05:46:28.639Z,3.00
2023-03-16T05:48:58.316Z,3.00
2023-03-16T05:51:27.935Z,3.00
2023-03-16T05:53:58.027Z,3.00
2023-03-16T05:56:25.620Z,3.00
2023-03-16T05:58:55.824Z,3.00
2023-03-16T06:01:23.094Z,3.00
2023-03-16T06:03:50.047Z,3.00
2023-03-16T06:06:17.063Z,3.00
2023-03-16T06:08:43.636Z,3.00
2023-03-16T06:11:11.380Z,3.00
2023-03-16T06:13:38.430Z,3.00
2023-03-16T06:16:06.310Z,3.00
2023-03-16T06:18:33.389Z,3.00
2023-03-16T06:21:00.004Z,3.00
2023-03-16T06:23:26.568Z,3.00
2023-03-16T06:25:56.370Z,3.10
2023-03-16T06:28:22.989Z,3.20
2023-03-16T06:30:52.881Z,3.20
2023-03-16T06:33:19.508Z,3.20
2023-03-16T06:35:48.223Z,3.30
2023-03-16T06:38:14.757Z,3.30
2023-03-16T06:40:41.488Z,3.30
2023-03-16T06:43:08.310Z,3.40
2023-03-16T06:45:34.949Z,3.40
2023-03-16T06:48:01.570Z,3.50
2023-03-16T06:50:29.215Z,3.50
2023-03-16T06:52:55.952Z,3.60
2023-03-16T06:55:22.528Z,3.60
2023-03-16T06:57:49.125Z,3.60
2023-03-16T07:00:19.175Z,3.70
2023-03-16T07:02:45.708Z,3.70
2023-03-16T07:05:15.054Z,3.80
2023-03-16T07:07:42.742Z,3.90
2023-03-16T07:10:13.821Z,3.90
2023-03-16T07:12:40.670Z,3.90
2023-03-16T07:15:07.472Z,4.00
2023-03-16T07:17:34.093Z,4.10
2023-03-16T07:20:00.759Z,4.10
2023-03-16T07:22:27.271Z,4.20
2023-03-16T07:24:57.256Z,4.20
2023-03-16T07:27:24.270Z,4.30
2023-03-16T07:29:52.312Z,4.50
2023-03-16T07:32:19.306Z,4.50
2023-03-16T07:34:48.545Z,4.60
2023-03-16T07:37:21.781Z,4.70
2023-03-16T07:39:57.834Z,4.70
2023-03-16T07:42:24.498Z,4.80
2023-03-16T07:44:52.069Z,4.80
2023-03-16T07:47:23.354Z,4.80
2023-03-16T07:49:52.308Z,5.00
2023-03-16T07:52:21.382Z,5.10
2023-03-16T07:54:48.955Z,5.10
2023-03-16T07:57:20.669Z,5.20
2023-03-16T07:59:50.037Z,5.20
2023-03-16T08:02:19.940Z,5.20
2023-03-16T08:04:47.055Z,5.10
2023-03-16T08:07:14.941Z,5.20
2023-03-16T08:09:41.882Z,5.20
2023-03-16T08:12:08.875Z,5.30
2023-03-16T08:14:36.801Z,5.30
2023-03-16T08:17:05.784Z,5.30
2023-03-16T08:19:40.202Z,5.30
2023-03-16T08:22:08.823Z,5.30
2023-03-16T08:24:35.494Z,5.30
2023-03-16T08:27:02.211Z,5.30
2023-03-16T08:29:34.621Z,5.40
2023-03-16T08:32:07.766Z,5.50
2023-03-16T08:34:37.442Z,5.60
2023-03-16T08:37:04.947Z,5.60
2023-03-16T08:39:35.738Z,5.70
2023-03-16T08:44:52.385Z,5.90
2023-03-16T08:47:31.981Z,5.90
2023-03-16T08:50:01.858Z,6.10
2023-03-16T08:52:28.630Z,6.30
2023-03-16T08:55:03.507Z,6.30
2023-03-16T08:57:32.091Z,6.30
2023-03-16T08:59:59.064Z,6.30
2023-03-16T09:02:25.757Z,6.40
2023-03-16T09:04:52.752Z,6.60
2023-03-16T09:07:19.519Z,6.40
2023-03-16T09:09:46.370Z,6.30
2023-03-16T09:12:12.847Z,6.30
2023-03-16T09:14:39.718Z,6.40
2023-03-16T09:17:07.768Z,6.60
2023-03-16T09:19:49.995Z,6.60
2023-03-16T09:22:19.508Z,6.60
2023-03-16T09:24:46.185Z,6.80
2023-03-16T09:27:13.016Z,7.10
2023-03-16T09:29:41.009Z,7.50
2023-03-16T09:32:07.946Z,7.80
2023-03-16T09:34:34.602Z,7.90
2023-03-16T09:37:01.550Z,8.10
2023-03-16T09:39:28.323Z,8.70
2023-03-16T09:42:16.081Z,8.80
2023-03-16T09:44:45.661Z,8.80
2023-03-16T09:47:13.048Z,9.20
2023-03-16T09:49:44.782Z,9.30
2023-03-16T09:52:11.747Z,9.20
2023-03-16T09:54:39.219Z,8.60
2023-03-16T09:57:16.382Z,8.20
2023-03-16T09:59:43.016Z,7.90
2023-03-16T10:02:25.427Z,7.90
2023-03-16T10:04:51.951Z,7.70
2023-03-16T10:07:30.730Z,7.80
2023-03-16T10:09:58.900Z,7.70
2023-03-16T10:12:35.117Z,7.80
2023-03-16T10:15:08.198Z,7.60
2023-03-16T10:17:49.917Z,7.70
2023-03-16T10:20:18.539Z,7.90
2023-03-16T10:22:46.850Z,7.90
2023-03-16T10:25:19.786Z,8.00
2023-03-16T10:27:47.128Z,8.10
2023-03-16T10:30:22.191Z,8.20
2023-03-16T10:32:49.424Z,8.10
2023-03-16T10:35:45.416Z,8.20
2023-03-16T10:38:30.775Z,8.30
2023-03-16T10:41:00.694Z,8.20
2023-03-16T10:43:29.029Z,8.10
2023-03-16T10:46:02.170Z,8.20
2023-03-16T10:48:34.185Z,8.40
2023-03-16T10:51:03.836Z,8.90
2023-03-16T10:53:31.535Z,9.50
2023-03-16T10:55:59.363Z,9.60
2023-03-16T10:58:30.633Z,9.80
2023-03-16T11:00:57.339Z,10.10
2023-03-16T11:03:32.219Z,10.30
2023-03-16T11:06:03.273Z,10.80
2023-03-16T11:08:48.634Z,10.80
2023-03-16T11:11:27.236Z,10.80
2023-03-16T11:13:56.649Z,10.40
2023-03-16T11:16:32.385Z,10.60
2023-03-16T11:19:18.924Z,11.10
2023-03-16T11:21:51.524Z,11.20
2023-03-16T11:24:23.554Z,11.00
2023-03-16T11:26:54.423Z,11.50
2023-03-16T11:29:20.925Z,12.00
2023-03-16T11:31:56.241Z,12.10
2023-03-16T11:34:29.123Z,12.00
2023-03-16T11:36:57.527Z,11.90
2023-03-16T11:39:37.634Z,12.00
2023-03-16T11:42:04.219Z,12.00
2023-03-16T11:44:38.701Z,12.20
2023-03-16T11:47:05.376Z,12.50
2023-03-16T11:49:58.502Z,12.40
2023-03-16T11:52:34.481Z,12.70
2023-03-16T11:55:07.384Z,13.10
2023-03-16T11:57:34.011Z,13.00
2023-03-16T12:00:11.211Z,13.20
2023-03-16T12:02:56.733Z,13.20
2023-03-16T12:05:33.180Z,13.30
2023-03-16T12:08:06.205Z,13.50
2023-03-16T12:10:43.717Z,13.20
2023-03-16T12:13:30.786Z,13.10
2023-03-16T12:16:01.616Z,13.20
2023-03-16T12:18:43.690Z,13.40
2023-03-16T12:21:14.207Z,12.80
2023-03-16T12:23:44.094Z,12.90
2023-03-16T12:26:12.353Z,13.20
2023-03-16T12:28:41.022Z,13.30
2023-03-16T12:31:10.378Z,13.10
2023-03-16T12:33:52.937Z,13.10
2023-03-16T12:36:35.082Z,13.50
2023-03-16T12:39:06.884Z,13.90
2023-03-16T12:41:36.446Z,13.20
2023-03-16T12:44:15.247Z,13.10
2023-03-16T12:46:56.677Z,13.30
2023-03-16T12:49:24.856Z,13.30
2023-03-16T12:52:01.700Z,13.50
2023-03-16T12:54:28.580Z,13.30
2023-03-16T12:57:02.748Z,13.50
2023-03-16T12:59:40.107Z,13.90
2023-03-16T13:02:13.045Z,14.00
2023-03-16T13:04:41.568Z,13.60
2023-03-16T13:07:19.283Z,12.90
2023-03-16T13:10:13.774Z,12.70
2023-03-16T13:12:41.587Z,12.80
2023-03-16T13:15:12.988Z,12.90
2023-03-16T13:17:39.818Z,12.70
2023-03-16T13:20:30.854Z,12.80
2023-03-16T13:23:09.643Z,13.00
2023-03-16T13:25:42.768Z,12.70
2023-03-16T13:28:17.001Z,12.80
2023-03-16T13:30:48.566Z,12.70
2023-03-16T13:33:36.712Z,12.50
2023-03-16T13:36:04.745Z,12.80
2023-03-16T13:38:31.679Z,13.00
2023-03-16T13:41:03.398Z,13.10
2023-03-16T13:43:32.967Z,13.40
2023-03-16T13:45:59.924Z,13.70
2023-03-16T13:48:26.621Z,14.20
2023-03-16T13:50:57.096Z,14.00
2023-03-16T13:53:25.468Z,13.70
2023-03-16T13:55:53.679Z,13.80
2023-03-16T13:58:24.381Z,13.40
2023-03-16T14:00:55.188Z,13.30
2023-03-16T14:03:24.246Z,13.70
2023-03-16T14:05:50.913Z,13.60
2023-03-16T14:08:19.570Z,13.70
2023-03-16T14:10:46.694Z,13.40
2023-03-16T14:13:25.587Z,13.40
2023-03-16T14:15:56.488Z,13.80
2023-03-16T14:18:34.954Z,13.80
2023-03-16T14:21:05.208Z,14.00
2023-03-16T14:23:34.039Z,13.80
2023-03-16T14:26:03.376Z,13.10
2023-03-16T14:28:32.442Z,13.00
2023-03-16T14:31:19.628Z,13.00
2023-03-16T14:33:46.224Z,13.00
2023-03-16T14:36:17.505Z,13.00
2023-03-16T14:38:45.144Z,13.10
2023-03-16T14:41:11.770Z,13.20
2023-03-16T14:43:57.625Z,13.10
2023-03-16T14:46:29.590Z,13.10
2023-03-16T14:49:25.916Z,13.30
2023-03-16T14:51:53.888Z,13.30
2023-03-16T14:54:22.300Z,13.50
2023-03-16T14:56:52.174Z,13.50
2023-03-16T14:59:18.923Z,14.00
2023-03-16T15:01:46.653Z,13.90
2023-03-16T15:04:15.052Z,13.70
2023-03-16T15:06:41.952Z,14.00
2023-03-16T15:09:19.537Z,13.80
2023-03-16T15:11:46.496Z,14.00
2023-03-16T15:14:36.024Z,14.30
2023-03-16T15:17:02.910Z,14.30
2023-03-16T15:19:29.561Z,14.30
2023-03-16T15:21:56.614Z,14.20
2023-03-16T15:24:23.194Z,14.40
2023-03-16T15:26:51.338Z,14.70
2023-03-16T15:29:19.772Z,15.00
2023-03-16T15:31:46.702Z,14.90
2023-03-16T15:34:13.520Z,14.50
2023-03-16T15:36:40.081Z,14.10
2023-03-16T15:39:08.203Z,14.00
2023-03-16T15:41:45.269Z,14.20
2023-03-16T15:44:14.281Z,14.30
2023-03-16T15:46:41.534Z,14.40
2023-03-16T15:49:08.260Z,14.40
2023-03-16T15:51:34.997Z,14.30
2023-03-16T15:54:03.325Z,14.60
2023-03-16T15:56:36.604Z,15.00
2023-03-16T15:59:12.013Z,14.60
2023-03-16T16:01:45.004Z,14.20
2023-03-16T16:04:16.243Z,14.10
2023-03-16T16:06:43.737Z,14.20
2023-03-16T16:09:10.686Z,14.40
2023-03-16T16:11:37.610Z,14.30
2023-03-16T16:14:04.516Z,14.20
2023-03-16T16:16:32.007Z,13.90
2023-03-16T16:18:58.916Z,13.50
2023-03-16T16:21:31.324Z,13.00
2023-03-16T16:23:58.295Z,12.80
2023-03-16T16:26:47.064Z,12.60
2023-03-16T16:29:16.626Z,12.60
2023-03-16T16:31:43.624Z,12.40
2023-03-16T16:34:14.557Z,12.50
2023-03-16T16:36:41.436Z,12.30
2023-03-16T16:39:08.740Z,12.10
2023-03-16T16:41:37.145Z,11.90
2023-03-16T16:44:10.897Z,11.90
2023-03-16T16:46:41.517Z,11.90
2023-03-16T16:49:24.634Z,11.80
2023-03-16T16:51:52.535Z,11.70
2023-03-16T16:54:20.579Z,11.60
2023-03-16T16:56:47.665Z,11.50
2023-03-16T16:59:17.579Z,11.40
2023-03-16T17:01:44.997Z,11.40
2023-03-16T17:04:13.600Z,11.30
2023-03-16T17:06:40.357Z,11.20
2023-03-16T17:09:08.772Z,11.20
2023-03-16T17:11:36.570Z,11.10
2023-03-16T17:14:04.806Z,11.10
2023-03-16T17:16:32.785Z,11.00
2023-03-16T17:18:59.552Z,10.90
2023-03-16T17:21:28.162Z,10.80
2023-03-16T17:23:54.767Z,10.80
2023-03-16T17:26:26.017Z,10.80
2023-03-16T17:28:58.415Z,10.70
2023-03-16T17:31:27.131Z,10.60
2023-03-16T17:33:54.618Z,10.60
2023-03-16T17:36:21.765Z,10.50
2023-03-16T17:38:48.597Z,10.50
2023-03-16T17:41:20.010Z,10.50
2023-03-16T17:43:50.285Z,10.40
2023-03-16T17:46:19.225Z,10.40
2023-03-16T17:48:46.953Z,10.30
2023-03-16T17:51:17.689Z,10.30
2023-03-16T17:53:44.839Z,10.30
2023-03-16T17:56:22.329Z,10.30
2023-03-16T17:58:51.247Z,10.20
2023-03-16T18:01:19.460Z,10.20
2023-03-16T18:03:46.255Z,10.10
2023-03-16T18:06:15.503Z,10.10
2023-03-16T18:08:42.161Z,10.10
2023-03-16T18:11:12.631Z,10.10
2023-03-16T18:13:39.931Z,10.00
2023-03-16T18:16:07.544Z,10.00
2023-03-16T18:18:37.092Z,10.00
2023-03-16T18:21:04.262Z,10.00
2023-03-16T18:23:32.334Z,10.00
2023-03-16T18:26:06.410Z,9.90
2023-03-16T18:28:33.790Z,9.90
2023-03-16T18:31:01.441Z,9.90
2023-03-16T18:33:31.149Z,9.90
2023-03-16T18:36:00.781Z,9.80
2023-03-16T18:38:32.700Z,9.90
2023-03-16T18:41:02.045Z,9.80
2023-03-16T18:43:29.168Z,9.80
2023-03-16T18:45:55.922Z,9.80
2023-03-16T18:48:29.330Z,9.80
2023-03-16T18:50:56.480Z,9.80
2023-03-16T18:53:23.775Z,9.80
2023-03-16T18:55:50.854Z,9.80
2023-03-16T18:58:19.016Z,9.80
2023-03-16T19:00:48.621Z,9.70
2023-03-16T19:03:19.450Z,9.70
2023-03-16T19:05:46.550Z,9.70
2023-03-16T19:08:13.917Z,9.70
2023-03-16T19:10:46.827Z,9.70
2023-03-16T19:13:17.123Z,9.70
2023-03-16T19:15:43.866Z,9.60
2023-03-16T19:18:10.781Z,9.60
2023-03-16T19:20:37.681Z,9.60
2023-03-16T19:23:16.838Z,9.60
2023-03-16T19:25:43.898Z,9.50
2023-03-16T19:28:15.225Z,9.50
2023-03-16T19:30:48.765Z,9.60
2023-03-16T19:33:19.811Z,9.50
2023-03-16T19:35:51.882Z,9.50
2023-03-16T19:38:19.939Z,9.50
2023-03-16T19:40:48.082Z,9.50
2023-03-16T19:43:16.720Z,9.50
2023-03-16T19:45:43.808Z,9.50
2023-03-16T19:48:20.417Z,9.50
2023-03-16T19:50:47.877Z,9.40
2023-03-16T19:53:16.709Z,9.50
2023-03-16T19:55:43.945Z,9.40
2023-03-16T19:58:20.359Z,9.40
2023-03-16T20:03:38.698Z,9.30
2023-03-16T20:06:05.566Z,9.30
2023-03-16T20:08:32.283Z,9.30
2023-03-16T20:11:04.434Z,9.40
2023-03-16T20:13:31.599Z,9.40
2023-03-16T20:15:58.577Z,9.40
2023-03-16T20:18:25.451Z,9.30
2023-03-16T20:20:52.081Z,9.30
2023-03-16T20:23:21.473Z,9.30
2023-03-16T20:25:48.637Z,9.30
2023-03-16T20:28:20.507Z,9.40
2023-03-16T20:30:47.736Z,9.40
2023-03-16T20:33:17.684Z,9.40
2023-03-16T20:35:44.795Z,9.30
2023-03-16T20:38:12.844Z,9.30
2023-03-16T20:40:40.848Z,9.30
2023-03-16T20:43:33.862Z,9.30
2023-03-16T20:46:02.236Z,9.20
2023-03-16T20:48:29.369Z,9.20
2023-03-16T20:50:57.185Z,9.20
2023-03-16T20:53:24.233Z,9.20
2023-03-16T20:55:51.741Z,9.20
2023-03-16T20:58:23.025Z,9.20
2023-03-16T21:00:50.850Z,9.20
2023-03-16T21:03:20.635Z,9.20
2023-03-16T21:05:47.161Z,9.20
2023-03-16T21:08:14.002Z,9.20
2023-03-16T21:10:41.197Z,9.20
2023-03-16T21:13:14.625Z,9.30
2023-03-16T21:15:41.173Z,9.30
2023-03-16T21:18:13.263Z,9.30
2023-03-16T21:20:40.047Z,9.20
2023-03-16T21:23:11.634Z,9.20
2023-03-16T21:25:43.610Z,9.30
2023-03-16T21:28:11.526Z,9.20
2023-03-16T21:30:46.294Z,9.20
2023-03-16T21:33:43.177Z,9.20
2023-03-16T21:36:14.626Z,9.20
2023-03-16T21:38:41.236Z,9.20
2023-03-16T21:41:07.972Z,9.20
2023-03-16T21:43:34.736Z,9.20
2023-03-16T21:46:01.378Z,9.20
2023-03-16T21:48:32.494Z,9.20
2023-03-16T21:51:01.679Z,9.20
2023-03-16T21:53:30.406Z,9.10
2023-03-16T21:55:57.601Z,9.10
2023-03-16T21:58:24.575Z,9.10
2023-03-16T22:00:52.128Z,9.10
2023-03-16T22:03:24.704Z,9.10
2023-03-16T22:05:52.126Z,9.10
2023-03-16T22:08:21.292Z,9.10
2023-03-16T22:10:47.888Z,9.10
2023-03-16T22:13:14.707Z,9.10
2023-03-16T22:15:42.515Z,9.00
2023-03-16T22:18:35.792Z,9.00
2023-03-16T22:21:04.446Z,9.00
2023-03-16T22:23:35.328Z,9.00
2023-03-16T22:26:05.799Z,9.00
2023-03-16T22:28:32.990Z,9.00
2023-03-16T22:31:01.054Z,9.00
2023-03-16T22:33:29.883Z,9.00
2023-03-16T22:36:01.341Z,9.00
2023-03-16T22:38:28.000Z,9.00
2023-03-16T22:40:54.667Z,9.00
2023-03-16T22:43:26.002Z,8.90
2023-03-16T22:45:56.359Z,8.90
2023-03-16T22:48:24.605Z,8.90
2023-03-16T22:50:51.298Z,9.00
2023-03-16T22:53:41.380Z,8.90
2023-03-16T22:56:10.235Z,8.90
2023-03-16T22:58:39.128Z,8.90
2023-03-16T23:03:40.996Z,8.80
2023-03-16T23:06:10.657Z,8.80
2023-03-16T23:08:37.935Z,8.80
2023-03-16T23:11:05.265Z,8.80
2023-03-16T23:13:32.443Z,8.80
2023-03-16T23:15:59.167Z,8.80
2023-03-16T23:18:26.067Z,8.80
2023-03-16T23:20:52.992Z,8.80
2023-03-16T23:23:19.619Z,8.80
2023-03-16T23:25:47.156Z,8.70
2023-03-16T23:28:16.163Z,8.80
2023-03-16T23:30:43.059Z,8.80
2023-03-16T23:33:10.808Z,8.80
2023-03-16T23:35:37.665Z,8.80
2023-03-16T23:38:04.499Z,8.80
2023-03-16T23:40:31.519Z,8.80
2023-03-16T23:43:00.653Z,8.70
2023-03-16T23:45:27.335Z,8.70
2023-03-16T23:47:56.026Z,8.70
2023-03-16T23:50:27.284Z,8.70
2023-03-16T23:52:54.390Z,8.70
2023-03-16T23:55:21.655Z,8.60
2023-03-16T23:57:48.419Z,8.60
